Time;durP1;ratioP1;P1;durP2;ratioP2;P2;SDS_P1;SDS_P2;PMS_P1;PMS_P2;Temp;Humidity;BMP_temperature;BMP_pressure;BME280_temperature;BME280_humidity;BME280_pressure;Samples;Min_cycle;Max_cycle;Signal;HPM_P1;HPM_P2
2023/05/11 00:01:22;;;;;;;5.93;5.53;;;;;;;13.49;100.00;100104.38;4976560;28;20231;-81
2023/05/11 00:03:49;;;;;;;5.57;5.17;;;;;;;13.50;100.00;100108.75;4976503;28;20208;-81
2023/05/11 00:06:16;;;;;;;6.70;6.10;;;;;;;13.57;100.00;100115.44;4976593;28;20303;-79
2023/05/11 00:08:43;;;;;;;6.60;6.10;;;;;;;13.42;100.00;100124.75;4976026;28;20682;-80
2023/05/11 00:11:09;;;;;;;6.30;5.80;;;;;;;13.45;100.00;100121.16;4976827;28;20650;-80
2023/05/11 00:13:36;;;;;;;7.77;6.30;;;;;;;13.31;100.00;100117.25;4976875;28;20201;-82
2023/05/11 00:16:02;;;;;;;6.13;5.73;;;;;;;13.29;100.00;100111.19;4977157;28;20563;-81
2023/05/11 00:18:29;;;;;;;6.93;6.33;;;;;;;13.40;100.00;100105.59;4976420;28;20231;-81
2023/05/11 00:20:56;;;;;;;6.20;5.60;;;;;;;13.46;100.00;100110.63;4976290;28;20224;-80
2023/05/11 00:23:24;;;;;;;7.47;5.93;;;;;;;13.44;100.00;100116.81;4976090;28;20286;-80
2023/05/11 00:25:50;;;;;;;6.57;5.10;;;;;;;13.53;100.00;100110.38;4975499;28;20215;-81
2023/05/11 00:28:17;;;;;;;6.93;6.37;;;;;;;13.55;100.00;100116.44;4975352;28;20216;-81
2023/05/11 00:30:44;;;;;;;7.07;6.37;;;;;;;13.57;100.00;100122.47;4975223;28;20237;-82
2023/05/11 00:33:10;;;;;;;7.80;7.03;;;;;;;13.40;100.00;100129.19;4975946;28;20212;-81
2023/05/11 00:35:37;;;;;;;7.70;7.00;;;;;;;13.20;100.00;100108.00;4975581;28;20754;-81
2023/05/11 00:38:03;;;;;;;7.70;7.10;;;;;;;13.17;100.00;100098.50;4975535;28;20746;-81
2023/05/11 00:40:32;;;;;;;8.60;7.73;;;;;;;13.24;100.00;100101.75;4975539;28;20224;-81
2023/05/11 00:42:58;;;;;;;9.03;8.13;;;;;;;13.22;100.00;100099.22;4976049;28;20216;-80
2023/05/11 00:45:25;;;;;;;8.63;7.97;;;;;;;13.23;100.00;100098.28;4975395;28;20235;-82
2023/05/11 00:47:52;;;;;;;8.37;7.57;;;;;;;13.21;100.00;100100.09;4974604;28;20697;-81
2023/05/11 00:50:18;;;;;;;8.00;7.40;;;;;;;13.28;100.00;100095.53;4975976;28;20328;-83
2023/05/11 00:52:45;;;;;;;8.17;7.57;;;;;;;13.33;100.00;100101.47;4978156;28;20726;-84
2023/05/11 00:55:13;;;;;;;7.53;6.93;;;;;;;13.45;100.00;100102.78;4978167;28;20222;-82
2023/05/11 00:57:41;;;;;;;7.77;7.17;;;;;;;13.46;100.00;100102.75;4978026;28;20209;-82
2023/05/11 01:00:09;;;;;;;7.93;7.33;;;;;;;13.58;100.00;100113.72;4978003;28;20229;-83
2023/05/11 01:02:36;;;;;;;7.73;7.13;;;;;;;13.63;100.00;100112.59;4979131;28;20734;-82
2023/05/11 01:05:02;;;;;;;7.33;6.73;;;;;;;13.67;100.00;100129.09;4979155;28;20233;-82
2023/05/11 01:07:34;;;;;;;6.80;6.20;;;;;;;13.74;100.00;100130.59;4979046;28;20219;-83
2023/05/11 01:10:09;;;;;;;7.13;6.60;;;;;;;13.80;100.00;100143.47;4978866;28;20720;-81
2023/05/11 01:12:45;;;;;;;6.77;6.17;;;;;;;13.81;100.00;100153.03;4979820;28;20270;-83
2023/05/11 01:15:13;;;;;;;7.27;6.67;;;;;;;13.85;100.00;100162.50;4979735;28;20206;-83
2023/05/11 01:17:46;;;;;;;8.13;7.33;;;;;;;13.86;100.00;100164.22;4979185;28;20210;-83
2023/05/11 01:20:17;;;;;;;7.20;6.60;;;;;;;13.90;100.00;100170.22;4978955;28;20220;-82
2023/05/11 01:23:01;;;;;;;7.73;7.00;;;;;;;13.94;100.00;100178.84;4979855;28;20196;-83
2023/05/11 01:25:49;;;;;;;8.57;6.97;;;;;;;13.93;100.00;100188.47;4979572;28;20255;-83
2023/05/11 01:28:37;;;;;;;7.07;6.60;;;;;;;13.89;100.00;100197.34;4979454;28;20208;-81
2023/05/11 01:31:08;;;;;;;7.40;6.80;;;;;;;13.93;100.00;100198.97;4978993;28;20237;-83
2023/05/11 01:33:39;;;;;;;8.50;7.80;;;;;;;13.98;100.00;100201.44;4980024;28;20343;-82
2023/05/11 01:36:09;;;;;;;7.40;6.70;;;;;;;14.02;100.00;100210.91;4979831;28;20274;-84
2023/05/11 01:38:40;;;;;;;8.87;8.17;;;;;;;13.99;100.00;100217.09;4979679;28;20679;-83
2023/05/11 01:41:12;;;;;;;9.17;8.47;;;;;;;14.02;100.00;100214.38;4979267;28;20288;-82
2023/05/11 01:43:40;;;;;;;7.80;7.20;;;;;;;14.00;100.00;100224.06;4980028;28;20256;-83
2023/05/11 01:46:12;;;;;;;7.90;7.30;;;;;;;14.04;100.00;100217.81;4979675;28;20256;-82
2023/05/11 01:48:42;;;;;;;8.93;8.23;;;;;;;14.08;100.00;100226.41;4979267;28;20212;-83
2023/05/11 01:51:10;;;;;;;10.13;9.33;;;;;;;14.07;100.00;100222.94;4979776;28;20403;-83
2023/05/11 01:53:39;;;;;;;10.50;9.40;;;;;;;14.00;100.00;100221.44;4979920;28;20255;-83
2023/05/11 01:56:07;;;;;;;7.77;7.17;;;;;;;13.97;100.00;100221.56;4979978;28;20214;-83
2023/05/11 01:58:36;;;;;;;9.53;8.73;;;;;;;13.99;100.00;100222.34;4979727;28;20630;-84
2023/05/11 02:01:04;;;;;;;8.47;7.77;;;;;;;13.99;100.00;100222.34;4982997;28;20228;-83
2023/05/11 02:03:35;;;;;;;8.30;7.50;;;;;;;14.01;100.00;100224.91;4983395;28;20209;-84
2023/05/11 02:06:04;;;;;;;8.20;7.50;;;;;;;14.03;100.00;100230.97;4983341;28;20564;-84
2023/05/11 02:08:31;;;;;;;8.77;7.97;;;;;;;14.06;100.00;100233.50;4982696;28;20272;-83
2023/05/11 02:10:59;;;;;;;7.80;7.20;;;;;;;14.05;100.00;100232.66;4982949;28;20233;-84
2023/05/11 02:13:28;;;;;;;7.67;7.13;;;;;;;14.06;100.00;100241.38;4983418;28;20203;-83
2023/05/11 02:15:57;;;;;;;7.10;6.60;;;;;;;14.08;100.00;100242.16;4982667;28;20209;-83
2023/05/11 02:18:24;;;;;;;7.40;6.80;;;;;;;14.07;100.00;100246.56;4982159;28;20245;-83
2023/05/11 02:20:52;;;;;;;8.47;7.70;;;;;;;14.10;100.00;100248.22;4982885;28;20228;-84
2023/05/11 02:23:20;;;;;;;8.17;7.37;;;;;;;14.10;100.00;100251.69;4983365;28;20208;-81
2023/05/11 02:25:48;;;;;;;10.93;9.90;;;;;;;14.06;100.00;100250.09;4983444;28;20224;-84
2023/05/11 02:28:15;;;;;;;9.23;8.30;;;;;;;14.02;100.00;100250.28;4982458;28;20205;-83
2023/05/11 02:30:45;;;;;;;9.37;8.60;;;;;;;13.99;100.00;100253.00;4981457;28;20237;-82
2023/05/11 02:33:18;;;;;;;10.03;9.03;;;;;;;13.98;100.00;100246.91;4981356;28;20198;-83
2023/05/11 02:35:46;;;;;;;9.67;8.70;;;;;;;14.00;100.00;100246.84;4982508;28;20659;-83
2023/05/11 02:38:16;;;;;;;10.43;9.37;;;;;;;13.97;100.00;100247.78;4982700;28;20212;-82
2023/05/11 02:40:47;;;;;;;9.40;8.53;;;;;;;13.97;100.00;100246.94;4981248;28;20821;-82
2023/05/11 02:43:26;;;;;;;9.93;9.03;;;;;;;13.95;100.00;100243.53;4981855;28;20193;-82
2023/05/11 02:45:59;;;;;;;9.37;8.60;;;;;;;13.96;100.00;100242.63;4982323;28;20209;-83
2023/05/11 02:48:28;;;;;;;10.67;9.87;;;;;;;14.00;100.00;100247.69;4982011;28;20208;-81
2023/05/11 02:50:55;;;;;;;10.40;9.60;;;;;;;14.00;100.00;100252.09;4980676;28;20259;-82
2023/05/11 02:53:27;;;;;;;10.43;9.63;;;;;;;14.02;100.00;100252.91;4982138;28;20204;-82
2023/05/11 02:55:54;;;;;;;11.17;9.57;;;;;;;14.00;100.00;100247.69;4981241;28;20702;-83
2023/05/11 02:58:21;;;;;;;10.80;9.90;;;;;;;14.03;100.00;100252.84;4982001;28;20207;-83
2023/05/11 03:00:48;;;;;;;10.77;9.87;;;;;;;14.03;100.00;100246.72;4982354;28;20225;-83
2023/05/11 03:03:14;;;;;;;10.10;9.17;;;;;;;14.01;100.00;100254.66;4981698;28;20211;-83
2023/05/11 03:05:40;;;;;;;11.13;10.23;;;;;;;14.00;100.00;100252.94;4981572;28;20212;-83
2023/05/11 03:08:07;;;;;;;12.53;9.57;;;;;;;14.04;100.00;100254.53;4982067;28;20236;-84
2023/05/11 03:10:35;;;;;;;11.43;10.30;;;;;;;14.02;100.00;100255.53;4981753;28;20232;-83
2023/05/11 03:13:03;;;;;;;10.07;9.27;;;;;;;14.03;100.00;100254.59;4964284;28;20220;-82
2023/05/11 03:15:30;;;;;;;11.03;9.90;;;;;;;14.01;100.00;100257.28;4962891;28;20233;-83
2023/05/11 03:17:59;;;;;;;11.23;10.27;;;;;;;13.99;100.00;100255.63;4962784;28;20233;-83
2023/05/11 03:20:27;;;;;;;11.17;10.07;;;;;;;13.97;100.00;100245.16;4963310;29;20225;-83
2023/05/11 03:22:54;;;;;;;11.97;10.97;;;;;;;13.97;100.00;100245.16;4963285;29;20201;-84
2023/05/11 03:25:22;;;;;;;11.00;10.10;;;;;;;13.95;100.00;100249.63;4962658;29;20216;-84
2023/05/11 03:27:52;;;;;;;11.00;10.00;;;;;;;13.96;100.00;100242.63;4977905;28;20213;-84
2023/05/11 03:30:20;;;;;;;10.93;9.83;;;;;;;13.96;100.00;100248.72;4988651;28;20233;-83
2023/05/11 03:32:46;;;;;;;10.37;9.57;;;;;;;13.98;100.00;100249.53;4983175;28;20200;-84
2023/05/11 03:35:13;;;;;;;10.33;9.57;;;;;;;14.01;100.00;100248.53;4983711;28;20209;-85
2023/05/11 03:37:40;;;;;;;10.43;9.43;;;;;;;14.03;100.00;100251.97;4983129;28;20267;-80
2023/05/11 03:40:08;;;;;;;11.27;10.27;;;;;;;13.96;100.00;100247.88;4982916;28;20201;-85
2023/05/11 03:42:36;;;;;;;10.87;10.07;;;;;;;13.95;100.00;100233.03;4981284;28;20204;-81
2023/05/11 03:45:07;;;;;;;11.47;10.47;;;;;;;13.97;100.00;100232.03;4977500;28;20207;-81
2023/05/11 03:47:35;;;;;;;12.07;11.07;;;;;;;13.91;100.00;100227.03;4976987;28;20238;-81
2023/05/11 03:50:04;;;;;;;10.80;10.00;;;;;;;13.95;100.00;100227.78;4975504;28;20240;-80
2023/05/11 03:52:30;;;;;;;12.47;11.47;;;;;;;13.83;100.00;100222.03;4976743;28;20282;-81
2023/05/11 03:54:57;;;;;;;14.30;12.87;;;;;;;13.82;100.00;100212.47;4976337;28;20634;-81
2023/05/11 03:57:25;;;;;;;13.77;12.67;;;;;;;13.80;100.00;100195.09;4976770;28;20201;-81
2023/05/11 03:59:51;;;;;;;13.37;12.17;;;;;;;13.75;100.00;100190.00;4976682;28;20261;-80
2023/05/11 04:02:20;;;;;;;10.83;9.83;;;;;;;13.78;100.00;100186.41;4976611;28;20208;-81
2023/05/11 04:04:47;;;;;;;13.10;11.93;;;;;;;13.82;100.00;100188.03;4977130;28;20670;-82
2023/05/11 04:07:13;;;;;;;16.87;13.23;;;;;;;13.79;100.00;100186.34;4974305;28;20567;-81
2023/05/11 04:09:39;;;;;;;12.90;11.70;;;;;;;13.87;100.00;100186.06;4957902;29;20275;-81
2023/05/11 04:12:06;;;;;;;11.67;10.57;;;;;;;13.89;100.00;100195.63;4957560;29;20733;-81
2023/05/11 04:14:32;;;;;;;11.17;10.17;;;;;;;13.93;100.00;100191.09;4958180;28;20212;-82
2023/05/11 04:16:59;;;;;;;11.70;10.80;;;;;;;13.96;100.00;100200.63;4958204;28;20213;-81
2023/05/11 04:19:27;;;;;;;13.20;11.87;;;;;;;13.97;100.00;100202.34;4958287;29;20216;-84
2023/05/11 04:21:53;;;;;;;17.17;15.57;;;;;;;13.96;100.00;100198.00;4957520;29;20233;-82
2023/05/11 04:24:19;;;;;;;18.10;16.50;;;;;;;13.96;100.00;100192.75;4957411;28;20210;-81
2023/05/11 04:26:46;;;;;;;21.90;17.40;;;;;;;13.99;100.00;100198.72;4972070;28;20212;-81
2023/05/11 04:29:12;;;;;;;18.27;16.67;;;;;;;14.01;100.00;100199.56;4977524;28;20277;-83
2023/05/11 04:31:39;;;;;;;19.50;17.70;;;;;;;14.02;100.00;100200.41;4994218;23;20237;-80
2023/05/11 04:34:06;;;;;;;18.90;17.10;;;;;;;14.05;100.00;100208.16;4981297;28;20261;-81
2023/05/11 04:36:34;;;;;;;19.07;17.33;;;;;;;14.03;100.00;100207.34;4978264;28;20216;-81
2023/05/11 04:39:00;;;;;;;18.93;17.07;;;;;;;14.05;100.00;100201.16;4978788;28;20224;-80
2023/05/11 04:41:26;;;;;;;19.20;17.60;;;;;;;14.06;100.00;100191.50;4978925;28;20262;-81
2023/05/11 04:43:53;;;;;;;18.03;16.53;;;;;;;14.09;100.00;100201.88;4979132;28;20204;-81
2023/05/11 04:46:19;;;;;;;20.17;18.23;;;;;;;14.10;100.00;100209.69;4978631;28;20212;-81
2023/05/11 04:48:46;;;;;;;18.77;16.97;;;;;;;14.10;100.00;100203.59;4978597;28;20618;-80
2023/05/11 04:51:12;;;;;;;19.30;17.57;;;;;;;14.10;100.00;100222.81;4978819;28;20859;-80
2023/05/11 04:53:39;;;;;;;17.73;16.13;;;;;;;14.11;100.00;100223.66;4978589;28;20212;-81
2023/05/11 04:56:06;;;;;;;15.97;14.77;;;;;;;14.13;100.00;100226.25;4979068;28;20236;-79
2023/05/11 04:58:32;;;;;;;16.53;15.33;;;;;;;14.10;100.00;100225.44;4976962;28;20274;-80
2023/05/11 05:00:59;;;;;;;16.03;14.73;;;;;;;14.14;100.00;100223.56;4977059;28;20220;-81
2023/05/11 05:03:25;;;;;;;15.93;14.67;;;;;;;14.12;100.00;100225.41;4977921;28;20206;-80
2023/05/11 05:05:52;;;;;;;15.13;13.93;;;;;;;14.13;100.00;100221.00;4978709;28;20208;-80
2023/05/11 05:08:19;;;;;;;16.23;14.93;;;;;;;14.17;100.00;100225.22;4978440;28;20200;-80
2023/05/11 05:10:46;;;;;;;14.73;13.63;;;;;;;14.19;100.00;100224.25;4978359;28;20256;-80
2023/05/11 05:13:15;;;;;;;14.23;13.13;;;;;;;14.18;100.00;100237.44;4979647;28;20201;-80
2023/05/11 05:15:41;;;;;;;13.53;12.53;;;;;;;14.17;100.00;100243.59;4977635;28;20223;-81
2023/05/11 05:18:08;;;;;;;13.00;12.00;;;;;;;14.12;100.00;100251.66;4976225;28;20267;-81
2023/05/11 05:20:34;;;;;;;14.13;13.10;;;;;;;14.11;100.00;100234.16;4976717;28;20232;-81
2023/05/11 05:23:00;;;;;;;13.57;12.47;;;;;;;14.12;100.00;100241.16;4977279;28;20208;-81
2023/05/11 05:25:27;;;;;;;13.60;12.50;;;;;;;14.14;100.00;100239.31;4977272;28;20244;-80
2023/05/11 05:27:55;;;;;;;13.87;12.87;;;;;;;14.08;100.00;100250.88;4977835;28;20213;-81
2023/05/11 05:30:21;;;;;;;13.00;11.90;;;;;;;14.06;100.00;100249.25;4976516;28;20246;-81
2023/05/11 05:32:48;;;;;;;13.07;12.07;;;;;;;14.06;100.00;100244.00;4975838;28;20235;-81
2023/05/11 05:35:14;;;;;;;12.77;11.83;;;;;;;14.09;100.00;100242.13;4976416;28;20204;-81
2023/05/11 05:37:40;;;;;;;12.90;11.90;;;;;;;14.08;100.00;100244.78;4975792;28;20706;-80
2023/05/11 05:40:08;;;;;;;12.23;11.20;;;;;;;14.10;100.00;100249.06;4975904;28;20234;-79
2023/05/11 05:42:35;;;;;;;12.27;11.47;;;;;;;14.11;100.00;100249.91;4977739;28;20231;-81
2023/05/11 05:45:03;;;;;;;13.30;12.27;;;;;;;14.13;100.00;100244.63;4977762;28;20206;-80
2023/05/11 05:47:32;;;;;;;12.77;11.87;;;;;;;14.10;100.00;100238.56;4978231;28;20208;-81
2023/05/11 05:49:58;;;;;;;12.47;11.60;;;;;;;14.10;100.00;100235.09;4976382;28;20217;-80
2023/05/11 05:52:25;;;;;;;11.53;10.73;;;;;;;14.11;100.00;100239.41;4978569;23;20347;-77
2023/05/11 05:54:51;;;;;;;12.43;11.53;;;;;;;14.12;100.00;100241.16;4972581;28;20773;-77
2023/05/11 05:57:17;;;;;;;11.33;10.47;;;;;;;14.09;100.00;100247.38;4973411;28;20212;-77
2023/05/11 05:59:44;;;;;;;12.30;11.40;;;;;;;14.10;100.00;100254.31;4973032;28;20275;-77
2023/05/11 06:02:12;;;;;;;10.83;10.13;;;;;;;14.09;100.00;100251.75;4973015;28;20823;-77
2023/05/11 06:04:38;;;;;;;11.87;11.00;;;;;;;14.10;100.00;100250.84;4972838;28;20615;-77
2023/05/11 06:07:05;;;;;;;12.53;11.63;;;;;;;14.06;100.00;100252.72;4972797;28;20209;-77
2023/05/11 06:09:31;;;;;;;11.03;10.33;;;;;;;14.09;100.00;100259.63;4972868;28;20670;-77
2023/05/11 06:11:57;;;;;;;10.63;9.93;;;;;;;14.08;100.00;100261.41;4972940;28;20284;-77
2023/05/11 06:14:24;;;;;;;11.47;10.67;;;;;;;14.14;100.00;100265.56;4973220;28;20761;-77
2023/05/11 06:16:52;;;;;;;11.77;10.87;;;;;;;14.17;100.00;100267.22;4973000;28;20264;-77
2023/05/11 06:19:20;;;;;;;10.97;10.17;;;;;;;14.18;100.00;100276.81;4972949;28;20233;-77
2023/05/11 06:21:47;;;;;;;11.33;10.37;;;;;;;14.19;100.00;100279.41;4972325;28;20674;-77
2023/05/11 06:24:14;;;;;;;11.30;10.50;;;;;;;14.22;100.00;100278.41;4972993;28;20208;-77
2023/05/11 06:26:40;;;;;;;10.43;9.63;;;;;;;14.21;100.00;100277.56;4973570;28;20577;-77
2023/05/11 06:29:07;;;;;;;10.80;10.00;;;;;;;14.26;100.00;100280.00;4973046;28;20711;-77
2023/05/11 06:31:33;;;;;;;10.37;9.57;;;;;;;14.26;100.00;100269.50;4973098;28;20236;-77
2023/05/11 06:34:00;;;;;;;10.13;9.43;;;;;;;14.28;100.00;100279.03;4973981;28;20209;-77
2023/05/11 06:36:28;;;;;;;9.47;8.87;;;;;;;14.30;100.00;100289.50;4972937;28;20678;-77
2023/05/11 06:38:54;;;;;;;9.60;8.90;;;;;;;14.30;100.00;100292.13;4972931;28;20232;-77
2023/05/11 06:41:21;;;;;;;9.90;9.20;;;;;;;14.29;100.00;100286.00;4972452;28;20678;-79
2023/05/11 06:43:47;;;;;;;10.40;9.63;;;;;;;14.30;100.00;100274.59;4972889;28;20213;-79
2023/05/11 06:46:16;;;;;;;11.03;10.23;;;;;;;14.33;100.00;100286.75;4973388;28;20213;-78
2023/05/11 06:48:43;;;;;;;11.03;10.27;;;;;;;14.35;100.00;100284.94;4975854;28;20237;-78
2023/05/11 06:51:10;;;;;;;12.20;11.30;;;;;;;14.36;100.00;100278.75;4975865;28;20231;-79
2023/05/11 06:53:37;;;;;;;11.33;10.43;;;;;;;14.37;100.00;100272.59;4976159;28;20215;-79
2023/05/11 06:56:04;;;;;;;10.93;10.13;;;;;;;14.42;100.00;100281.16;4975509;28;20232;-79
2023/05/11 06:58:31;;;;;;;10.40;9.60;;;;;;;14.42;100.00;100290.81;4975692;28;20283;-79
2023/05/11 07:00:57;;;;;;;10.33;9.53;;;;;;;14.39;100.00;100283.91;4976141;28;20232;-78
2023/05/11 07:03:24;;;;;;;11.33;10.43;;;;;;;14.41;100.00;100289.97;4975505;28;20208;-78
2023/05/11 07:05:50;;;;;;;11.77;10.87;;;;;;;14.38;100.00;100282.19;4976076;28;20209;-78
2023/05/11 07:08:16;;;;;;;11.37;10.57;;;;;;;14.41;100.00;100289.06;4975653;28;20241;-78
2023/05/11 07:10:44;;;;;;;11.67;10.77;;;;;;;14.43;100.00;100290.75;4975473;28;20277;-78
2023/05/11 07:13:11;;;;;;;10.67;9.87;;;;;;;14.48;100.00;100303.69;4975786;28;20596;-78
2023/05/11 07:15:37;;;;;;;10.80;10.00;;;;;;;14.47;100.00;100300.22;4976307;28;20267;-80
2023/05/11 07:18:04;;;;;;;11.47;10.57;;;;;;;14.48;100.00;100293.19;4976794;28;20280;-80
2023/05/11 07:20:30;;;;;;;11.83;10.90;;;;;;;14.48;100.00;100286.16;4976447;28;20243;-80
2023/05/11 07:22:58;;;;;;;12.53;11.57;;;;;;;14.49;100.00;100280.03;4976008;28;20329;-79
2023/05/11 07:25:24;;;;;;;11.43;10.63;;;;;;;14.55;100.00;100289.44;4975900;28;20214;-79
2023/05/11 07:27:52;;;;;;;11.43;10.50;;;;;;;14.56;100.00;100287.66;4976087;28;20232;-80
2023/05/11 07:30:19;;;;;;;14.20;13.10;;;;;;;14.55;100.00;100289.44;4975818;28;20208;-79
2023/05/11 07:32:45;;;;;;;12.33;11.43;;;;;;;14.55;100.00;100286.81;4975997;28;20623;-77
2023/05/11 07:35:11;;;;;;;11.57;10.77;;;;;;;14.60;100.00;100278.78;4975448;28;20259;-77
2023/05/11 07:37:38;;;;;;;12.70;11.70;;;;;;;14.63;100.00;100276.91;4974869;28;20594;-77
2023/05/11 07:40:06;;;;;;;11.03;10.23;;;;;;;14.68;100.00;100268.84;4974649;28;20271;-77
2023/05/11 07:42:32;;;;;;;10.63;9.93;;;;;;;14.68;100.00;100263.56;4975048;28;20204;-77
2023/05/11 07:45:00;;;;;;;11.20;10.40;;;;;;;14.72;100.00;100272.19;4975241;28;20255;-77
2023/05/11 07:47:26;;;;;;;10.43;9.70;;;;;;;14.74;100.00;100279.09;4975319;28;20291;-77
2023/05/11 07:49:53;;;;;;;10.13;9.43;;;;;;;14.80;100.00;100292.00;4975002;28;20629;-77
2023/05/11 07:52:19;;;;;;;9.80;9.00;;;;;;;14.84;100.00;100292.75;4974773;28;20220;-78
2023/05/11 07:54:45;;;;;;;10.53;9.73;;;;;;;14.85;100.00;100283.94;4976305;28;20581;-78
2023/05/11 07:57:12;;;;;;;11.30;10.43;;;;;;;14.89;100.00;100282.91;4975186;28;20575;-79
2023/05/11 07:59:39;;;;;;;11.77;10.97;;;;;;;14.88;100.00;100283.81;4975533;28;20217;-77
2023/05/11 08:02:08;;;;;;;11.00;10.10;;;;;;;14.87;100.00;100282.13;4975172;28;20251;-77
2023/05/11 08:04:35;;;;;;;12.00;11.00;;;;;;;14.90;100.00;100287.25;4976192;28;20273;-77
2023/05/11 08:07:01;;;;;;;11.77;10.80;;;;;;;14.93;100.00;100292.38;4975831;28;20258;-77
2023/05/11 08:09:28;;;;;;;12.63;11.63;;;;;;;14.96;100.00;100291.41;4975942;28;20267;-77
2023/05/11 08:11:55;;;;;;;10.77;9.97;;;;;;;14.93;100.00;100281.88;4975509;28;20232;-77
2023/05/11 08:14:21;;;;;;;11.07;10.17;;;;;;;14.92;100.00;100281.94;4975662;28;20759;-78
2023/05/11 08:16:48;;;;;;;11.43;10.47;;;;;;;14.96;100.00;100280.88;4975003;28;20615;-77
2023/05/11 08:19:16;;;;;;;18.13;16.50;;;;;;;15.00;100.00;100291.22;4975327;28;20229;-77
2023/05/11 08:21:45;;;;;;;16.53;15.10;;;;;;;15.04;100.00;100294.59;4976069;28;20265;-77
2023/05/11 08:24:11;;;;;;;10.00;9.20;;;;;;;15.02;100.00;100299.03;4976744;28;20208;-78
2023/05/11 08:26:38;;;;;;;13.20;12.20;;;;;;;15.01;100.00;100306.09;4976092;28;20262;-77
2023/05/11 08:29:04;;;;;;;10.83;9.97;;;;;;;15.04;100.00;100303.34;4976958;28;20232;-77
2023/05/11 08:31:31;;;;;;;10.23;9.43;;;;;;;15.06;100.00;100312.03;4976143;28;20219;-78
2023/05/11 08:33:57;;;;;;;10.23;9.43;;;;;;;15.09;100.00;100311.03;4975191;28;20214;-77
2023/05/11 08:36:25;;;;;;;10.80;10.00;;;;;;;15.08;100.00;100311.94;4974703;28;20216;-77
2023/05/11 08:38:51;;;;;;;11.03;10.23;;;;;;;15.09;100.00;100304.00;4974998;28;20572;-77
2023/05/11 08:41:17;;;;;;;11.33;10.40;;;;;;;15.14;100.00;100318.72;4973921;28;20670;-75
2023/05/11 08:43:45;;;;;;;10.07;9.37;;;;;;;15.12;100.00;100312.69;4974015;28;20296;-76
2023/05/11 08:46:17;;;;;;;11.60;10.70;;;;;;;15.13;100.00;100312.63;4973904;28;20295;-75
2023/05/11 08:48:44;;;;;;;11.40;10.60;;;;;;;15.13;100.00;100317.88;4961743;28;20284;-75
2023/05/11 08:51:10;;;;;;;9.97;9.17;;;;;;;15.16;100.00;100319.53;4953883;29;20762;-75
2023/05/11 08:53:39;;;;;;;10.70;9.90;;;;;;;15.08;100.00;100320.72;4954205;28;20245;-75
2023/05/11 08:56:08;;;;;;;10.47;9.67;;;;;;;15.12;100.00;100310.06;4954658;28;20213;-75
2023/05/11 08:58:36;;;;;;;10.37;9.57;;;;;;;15.13;100.00;100303.91;4954425;28;20229;-75
2023/05/11 09:01:03;;;;;;;10.80;10.00;;;;;;;15.15;100.00;100317.84;4954176;28;20209;-76
2023/05/11 09:03:31;;;;;;;9.93;9.23;;;;;;;15.18;100.00;100318.56;4954269;29;20299;-75
2023/05/11 09:05:59;;;;;;;10.10;9.30;;;;;;;15.21;100.00;100307.06;4954213;28;20268;-75
2023/05/11 09:08:30;;;;;;;9.77;9.07;;;;;;;15.15;100.00;100304.69;4970783;28;20318;-76
2023/05/11 09:10:59;;;;;;;9.10;8.40;;;;;;;15.05;100.00;100289.25;4972659;28;20207;-76
2023/05/11 09:13:25;;;;;;;9.07;8.43;;;;;;;15.14;100.00;100274.03;4973409;28;20230;-76
2023/05/11 09:15:52;;;;;;;8.30;7.73;;;;;;;15.09;100.00;100263.72;4973250;28;20311;-76
2023/05/11 09:18:19;;;;;;;9.10;8.50;;;;;;;15.15;100.00;100268.72;4973222;28;20237;-76
2023/05/11 09:20:46;;;;;;;8.53;7.93;;;;;;;15.07;100.00;100266.41;4972914;28;20239;-75
2023/05/11 09:23:15;;;;;;;8.40;7.73;;;;;;;15.07;100.00;100283.97;4973325;28;20677;-76
2023/05/11 09:25:42;;;;;;;7.40;6.80;;;;;;;15.15;100.00;100288.91;4973479;28;20208;-76
2023/05/11 09:28:15;;;;;;;7.07;6.57;;;;;;;15.13;100.00;100278.44;4973125;28;20228;-76
2023/05/11 09:30:42;;;;;;;7.20;6.70;;;;;;;15.17;100.00;100280.03;4972902;28;20204;-76
2023/05/11 09:33:09;;;;;;;6.27;5.87;;;;;;;15.20;100.00;100282.56;4973094;28;20233;-75
2023/05/11 09:35:35;;;;;;;5.83;5.37;;;;;;;15.21;100.00;100292.13;4974204;28;20217;-75
2023/05/11 09:38:04;;;;;;;5.10;4.70;;;;;;;15.22;100.00;100298.25;4973089;28;20232;-75
2023/05/11 09:40:33;;;;;;;5.10;4.80;;;;;;;15.16;100.00;100306.38;4973164;28;20263;-79
2023/05/11 09:43:00;;;;;;;5.47;5.10;;;;;;;15.14;100.00;100314.31;4973472;28;20216;-80
2023/05/11 09:45:41;;;;;;;5.20;4.83;;;;;;;15.13;100.00;100301.25;4973347;28;20208;-77
2023/05/11 09:48:24;;;;;;;5.50;5.00;;;;;;;15.12;100.00;100289.03;4973357;28;20232;-81
2023/05/11 09:50:52;;;;;;;5.40;5.00;;;;;;;15.14;100.00;100280.16;4973493;28;20220;-75
2023/05/11 09:53:19;;;;;;;4.80;4.50;;;;;;;15.14;100.00;100280.16;4972751;28;20224;-76
2023/05/11 09:55:50;;;;;;;5.27;4.87;;;;;;;15.17;100.00;100272.16;4972844;28;20304;-76
2023/05/11 09:58:17;;;;;;;4.83;4.53;;;;;;;15.22;100.00;100282.47;4972675;28;20234;-77
2023/05/11 10:00:50;;;;;;;4.70;4.40;;;;;;;15.24;100.00;100286.75;4973717;28;20208;-78
2023/05/11 10:03:17;;;;;;;4.67;4.37;;;;;;;15.26;100.00;100284.06;4973439;28;20211;-81
2023/05/11 10:05:56;;;;;;;4.33;4.03;;;;;;;15.26;100.00;100295.44;4973213;28;20208;-81
2023/05/11 10:08:28;;;;;;;4.23;3.93;;;;;;;15.32;100.00;100290.84;4972867;28;20216;-84
2023/05/11 10:10:55;;;;;;;4.60;4.30;;;;;;;15.36;100.00;100290.66;4971939;28;20928;-81
2023/05/11 10:13:22;;;;;;;4.37;4.07;;;;;;;15.36;100.00;100293.31;4973286;28;20232;-82
2023/05/11 10:15:51;;;;;;;4.07;3.80;;;;;;;15.38;100.00;100304.63;4973378;28;20263;-83
2023/05/11 10:18:18;;;;;;;4.20;3.90;;;;;;;15.43;100.00;100304.41;4975590;28;20226;-79
2023/05/11 10:20:44;;;;;;;3.53;3.33;;;;;;;15.48;100.00;100300.69;4974228;28;20212;-82
2023/05/11 10:23:12;;;;;;;3.17;2.97;;;;;;;15.51;100.00;100301.47;4976987;28;20205;-79
2023/05/11 10:25:39;;;;;;;3.00;2.80;;;;;;;15.48;100.00;100321.72;4977480;28;20299;-81
2023/05/11 10:28:06;;;;;;;3.10;2.90;;;;;;;15.48;100.00;100310.34;4976849;28;20283;-82
2023/05/11 10:30:33;;;;;;;3.67;3.47;;;;;;;15.47;100.00;100320.00;4976688;28;20642;-81
2023/05/11 10:33:01;;;;;;;3.33;3.13;;;;;;;15.41;100.00;100298.38;4990282;23;20236;-80
2023/05/11 10:35:28;;;;;;;3.50;3.30;;;;;;;15.41;100.00;100293.94;4979012;28;20212;-77
2023/05/11 10:37:54;;;;;;;3.73;3.43;;;;;;;15.41;100.00;100298.38;4979413;28;20302;-78
2023/05/11 10:40:22;;;;;;;4.60;4.30;;;;;;;15.40;100.00;100301.91;4980447;28;20235;-83
2023/05/11 10:43:11;;;;;;;4.43;4.13;;;;;;;15.39;100.00;100284.41;4980287;28;20670;-83
2023/05/11 10:45:49;;;;;;;3.50;3.30;;;;;;;15.40;100.00;100284.34;4980293;28;20213;-82
2023/05/11 10:48:49;;;;;;;3.10;2.83;;;;;;;15.44;100.00;100287.69;4979409;28;20231;-82
2023/05/11 10:51:47;;;;;;;3.53;3.33;;;;;;;15.45;100.00;100285.00;4979106;28;20677;-82
2023/05/11 10:54:27;;;;;;;3.40;3.20;;;;;;;15.42;100.00;100289.53;4978695;28;20723;-82
2023/05/11 10:57:10;;;;;;;3.00;2.80;;;;;;;15.41;100.00;100285.22;4977850;28;20209;-80
2023/05/11 11:00:08;;;;;;;2.97;2.77;;;;;;;15.45;100.00;100277.13;4973629;28;20212;-80
2023/05/11 11:02:35;;;;;;;3.17;2.93;;;;;;;15.47;100.00;100285.81;4979859;28;20204;-81
2023/05/11 11:05:06;;;;;;;2.40;2.20;;;;;;;15.48;100.00;100269.09;4979113;28;20367;-82
2023/05/11 11:07:52;;;;;;;2.00;1.90;;;;;;;15.54;100.00;100288.16;4979248;28;20230;-82
2023/05/11 11:10:30;;;;;;;2.37;2.20;;;;;;;15.56;100.00;100297.72;4978928;28;20216;-82
2023/05/11 11:13:07;;;;;;;2.57;2.37;;;;;;;15.57;100.00;100315.22;4979900;28;20666;-82
2023/05/11 11:16:08;;;;;;;1.97;1.87;;;;;;;15.58;100.00;100316.06;4978952;28;20256;-83